Nautic — A8HQ3 — position and weather

sailwx.info

Track history (hours):
 
Tides and Currents Weather Stations Pressure Air Temp Water Temp Dewpoint Dewpoint Depression Visibility Wind Speed Wind Dir Waves Ship Positions

Nautic

Last reported at 2017-Mar-25 23:18 UTC. Time now 2017-Mar-30 20:17 UTC.
Position N 01°52' E 102°25'.

Length 274 m; draft 8.2 m.

Type: Ship. MMSI: 636012754.

Date/timePositionNaut miles runAvg speedWind from/ knotsBaromVisibWave heightAir tempDewpointWater temp
2017-Mar-25 23:18N 01°52' E 102°25'912.4
2017-Mar-25 22:33N 01°48' E 102°33'1313.2
2017-Mar-25 21:32N 01°42' E 102°45'5514.0
2017-Mar-25 17:33N 01°13' E 103°32'8 8.3
2017-Mar-25 16:33N 01°13' E 103°41'1 0.6
2017-Mar-25 15:32N 01°12' E 103°41'0 0.0
2017-Mar-25 14:23N 01°12' E 103°41'0 0.0
2017-Mar-25 13:32N 01°12' E 103°41'0 0.0
2017-Mar-25 12:32N 01°12' E 103°41'0 0.1
2017-Mar-25 11:32N 01°12' E 103°41'0 0.1
2017-Mar-25 10:29N 01°12' E 103°41'0 0.1
2017-Mar-25 09:31N 01°12' E 103°41'0 0.2
2017-Mar-25 08:13N 01°12' E 103°41'0 0.3
2017-Mar-25 07:33N 01°12' E 103°41'5 4.9
2017-Mar-25 06:33N 01°13' E 103°36'4 3.5
2017-Mar-25 05:33N 01°09' E 103°34'0 0.5
2017-Mar-25 04:33N 01°09' E 103°34'1 0.7
2017-Mar-25 03:19N 01°08' E 103°34'2 1.7
2017-Mar-25 02:24N 01°07' E 103°34'1 0.1
2017-Mar-24 20:27N 01°07' E 103°33'0 0.0
2017-Mar-24 19:27N 01°07' E 103°33'0 0.1
2017-Mar-24 16:30N 01°07' E 103°34'0 0.1
2017-Mar-24 15:06N 01°07' E 103°34'0 0.0
2017-Mar-24 14:33N 01°07' E 103°34'0 0.1
2017-Mar-24 12:24N 01°08' E 103°34'0 0.0
2017-Mar-24 08:21N 01°08' E 103°33'0 0.0
2017-Mar-24 06:30N 01°08' E 103°33'0 0.0
2017-Mar-24 05:30N 01°08' E 103°33'0 0.0
2017-Mar-23 21:09N 01°07' E 103°33'0 0.0
2017-Mar-23 20:27N 01°07' E 103°33'0 0.0
2017-Mar-23 17:33N 01°07' E 103°33'0 0.0
2017-Mar-23 15:15N 01°07' E 103°33'0 0.0
2017-Mar-23 14:27N 01°07' E 103°33'0 0.0
2017-Mar-23 12:09N 01°07' E 103°33'0 0.1
2017-Mar-23 11:33N 01°07' E 103°33'0 0.0
2017-Mar-23 02:27N 01°07' E 103°33'0 0.1
2017-Mar-23 01:27N 01°07' E 103°33'0 0.0
2017-Mar-22 21:12N 01°07' E 103°33'0 0.1
2017-Mar-22 20:09N 01°07' E 103°33'0 0.0
2017-Mar-22 18:16N 01°07' E 103°33'0 0.1
2017-Mar-22 17:33N 01°07' E 103°33'0 0.3
2017-Mar-22 16:33N 01°07' E 103°34'1 0.9
2017-Mar-22 15:31N 01°07' E 103°34'0 0.0
2017-Mar-21 21:17N 01°07' E 103°35'0 0.1
2017-Mar-21 19:29N 01°07' E 103°34'0 0.1
2017-Mar-21 18:29N 01°07' E 103°34'0 0.0
2017-Mar-21 17:26N 01°07' E 103°34'0 0.0
2017-Mar-21 16:29N 01°07' E 103°34'0 0.0
2017-Mar-21 15:32N 01°07' E 103°34'0 0.1
2017-Mar-21 14:33N 01°07' E 103°34'0 0.1
2017-Mar-21 13:33N 01°07' E 103°34'0 0.1
2017-Mar-21 12:33N 01°07' E 103°34'0 0.1
2017-Mar-21 11:33N 01°07' E 103°35'0 0.1
2017-Mar-21 10:33N 01°07' E 103°35'1 0.6
2017-Mar-21 09:33N 01°07' E 103°34'5 5.4
2017-Mar-21 08:33N 01°11' E 103°38'7 6.7
2017-Mar-21 07:33N 01°09' E 103°44'8 7.9
2017-Mar-21 06:33N 01°12' E 103°51'8 7.7
2017-Mar-21 05:33N 01°15' E 103°58'  
Track history (hours):
 
Tides and Currents Weather Stations Pressure Air Temp Water Temp Dewpoint Dewpoint Depression Visibility Wind Speed Wind Dir Waves Ship Positions

Nautic

Last reported at 2017-Mar-25 23:18 UTC. Time now 2017-Mar-30 20:17 UTC.
Position N 01°52' E 102°25'.

Length 274 m; draft 8.2 m.

Type: Ship. MMSI: 636012754.

Date/timePositionNaut miles runAvg speedWind from/ knotsBaromVisibWave heightAir tempDewpointWater temp
2017-Mar-25 23:18N 01°52' E 102°25'912.4
2017-Mar-25 22:33N 01°48' E 102°33'1313.2
2017-Mar-25 21:32N 01°42' E 102°45'5514.0
2017-Mar-25 17:33N 01°13' E 103°32'8 8.3
2017-Mar-25 16:33N 01°13' E 103°41'1 0.6
2017-Mar-25 15:32N 01°12' E 103°41'0 0.0
2017-Mar-25 14:23N 01°12' E 103°41'0 0.0
2017-Mar-25 13:32N 01°12' E 103°41'0 0.0
2017-Mar-25 12:32N 01°12' E 103°41'0 0.1
2017-Mar-25 11:32N 01°12' E 103°41'0 0.1
2017-Mar-25 10:29N 01°12' E 103°41'0 0.1
2017-Mar-25 09:31N 01°12' E 103°41'0 0.2
2017-Mar-25 08:13N 01°12' E 103°41'0 0.3
2017-Mar-25 07:33N 01°12' E 103°41'5 4.9
2017-Mar-25 06:33N 01°13' E 103°36'4 3.5
2017-Mar-25 05:33N 01°09' E 103°34'0 0.5
2017-Mar-25 04:33N 01°09' E 103°34'1 0.7
2017-Mar-25 03:19N 01°08' E 103°34'2 1.7
2017-Mar-25 02:24N 01°07' E 103°34'1 0.1
2017-Mar-24 20:27N 01°07' E 103°33'0 0.0
2017-Mar-24 19:27N 01°07' E 103°33'0 0.1
2017-Mar-24 16:30N 01°07' E 103°34'0 0.1
2017-Mar-24 15:06N 01°07' E 103°34'0 0.0
2017-Mar-24 14:33N 01°07' E 103°34'0 0.1
2017-Mar-24 12:24N 01°08' E 103°34'0 0.0
2017-Mar-24 08:21N 01°08' E 103°33'0 0.0
2017-Mar-24 06:30N 01°08' E 103°33'0 0.0
2017-Mar-24 05:30N 01°08' E 103°33'0 0.0
2017-Mar-23 21:09N 01°07' E 103°33'0 0.0
2017-Mar-23 20:27N 01°07' E 103°33'0 0.0
2017-Mar-23 17:33N 01°07' E 103°33'0 0.0
2017-Mar-23 15:15N 01°07' E 103°33'0 0.0
2017-Mar-23 14:27N 01°07' E 103°33'0 0.0
2017-Mar-23 12:09N 01°07' E 103°33'0 0.1
2017-Mar-23 11:33N 01°07' E 103°33'0 0.0
2017-Mar-23 02:27N 01°07' E 103°33'0 0.1
2017-Mar-23 01:27N 01°07' E 103°33'0 0.0
2017-Mar-22 21:12N 01°07' E 103°33'0 0.1
2017-Mar-22 20:09N 01°07' E 103°33'0 0.0
2017-Mar-22 18:16N 01°07' E 103°33'0 0.1
2017-Mar-22 17:33N 01°07' E 103°33'0 0.3
2017-Mar-22 16:33N 01°07' E 103°34'1 0.9
2017-Mar-22 15:31N 01°07' E 103°34'0 0.0
2017-Mar-21 21:17N 01°07' E 103°35'0 0.1
2017-Mar-21 19:29N 01°07' E 103°34'0 0.1
2017-Mar-21 18:29N 01°07' E 103°34'0 0.0
2017-Mar-21 17:26N 01°07' E 103°34'0 0.0
2017-Mar-21 16:29N 01°07' E 103°34'0 0.0
2017-Mar-21 15:32N 01°07' E 103°34'0 0.1
2017-Mar-21 14:33N 01°07' E 103°34'0 0.1
2017-Mar-21 13:33N 01°07' E 103°34'0 0.1
2017-Mar-21 12:33N 01°07' E 103°34'0 0.1
2017-Mar-21 11:33N 01°07' E 103°35'0 0.1
2017-Mar-21 10:33N 01°07' E 103°35'1 0.6
2017-Mar-21 09:33N 01°07' E 103°34'5 5.4
2017-Mar-21 08:33N 01°11' E 103°38'7 6.7
2017-Mar-21 07:33N 01°09' E 103°44'8 7.9
2017-Mar-21 06:33N 01°12' E 103°51'8 7.7
2017-Mar-21 05:33N 01°15' E 103°58'  

Dump ship's entire track history